Weather History for KFBL - November, 2011

Change the Weather History Date:

Monday, November 28, 2011

  Actual Average (WUND) Record (WUND)
Temperature  
Mean Temperature 29 °F -  
Max Temperature 35 °F - - (-1)
Min Temperature 23 °F - - (-1)
Degree Days  
Heating Degree Days 36    
Moisture  
Dew Point 22 °F    
Average Humidity 78    
Maximum Humidity 86    
Minimum Humidity 65    
Precipitation  
Precipitation 0.00 in - - ()
Sea Level Pressure  
Sea Level Pressure 30.11 in    
Wind  
Wind Speed 4 mph (South)    
Max Wind Speed 15 mph    
Max Gust Speed 20 mph    
Visibility 10 miles    
Events      
Averages and records for this station are not official NWS values.
T = Trace of Precipitation, MM = Missing Value Source: NWS Daily Summary

Daily Weather History Graph

Daily Weather History Graph

Search for Another Location

Airport or City:

Trip Planner

Search our weather history database for the weather conditions in past years. The results will help you decide how hot, cold, wet, or windy it might be!

Date:

Astronomy

Nov. 28, 2011 Rise Set
Actual Time 7:25 AM CST 4:36 PM CST
Civil Twilight 6:52 AM CST 5:09 PM CST
Nautical Twilight 6:16 AM CST 5:45 PM CST
Astronomical Twilight 5:42 AM CST 6:19 PM CST
Moon 10:34 AM CST (11/28) 8:26 PM CST (11/28)
Length of Visible Light 10h 16m
Length of Day
9h 11m
Waxing Crescent, 16% of the Moon is Illuminated
Nov 28
Waxing Crescent
Dec 2
First Quarter
Dec 10
Full
Dec 17
Last Quarter
Dec 24
New

Hourly Weather History & Observations

Time (CST) Temp. Windchill Dew Point Humidity Pressure Visibility Wind Dir Wind Speed Gust Speed Precip Events Conditions
12:14 AM 26.6 °F - 21.2 °F 80% 30.16 in 10.0 mi Calm Calm - N/A   Scattered Clouds
12:34 AM 26.6 °F - 21.2 °F 80% 30.16 in 10.0 mi Calm Calm - N/A   Clear
12:54 AM 26.6 °F 22.6 °F 19.4 °F 74% 30.15 in 10.0 mi South 3.5 mph - N/A   Clear
1:14 AM 26.6 °F - 21.2 °F 80% 30.15 in 10.0 mi Calm Calm - N/A   Clear
1:33 AM 24.8 °F - 19.4 °F 80% 30.15 in 10.0 mi Calm Calm - N/A   Clear
1:54 AM 24.8 °F - 19.4 °F 80% 30.14 in 10.0 mi Calm Calm - N/A   Clear
2:14 AM 24.8 °F 19.1 °F 19.4 °F 80% 30.14 in 10.0 mi SSE 4.6 mph - N/A   Clear
2:34 AM 24.8 °F - 19.4 °F 80% 30.14 in 10.0 mi Calm Calm - N/A   Clear
2:54 AM 24.8 °F 19.1 °F 19.4 °F 80% 30.14 in 10.0 mi South 4.6 mph - N/A   Clear
3:14 AM 24.8 °F - 19.4 °F 80% 30.13 in 10.0 mi Calm Calm - N/A   Clear
3:34 AM 24.8 °F - 19.4 °F 80% 30.13 in 10.0 mi Calm Calm - N/A   Clear
3:53 AM 24.8 °F - 19.4 °F 80% 30.12 in 10.0 mi Calm Calm - N/A   Clear
4:14 AM 23.0 °F 18.4 °F 19.4 °F 86% 30.13 in 10.0 mi SSW 3.5 mph - N/A   Clear
4:34 AM 23.0 °F - 19.4 °F 86% 30.14 in 10.0 mi Calm Calm - N/A   Clear
4:54 AM 23.0 °F 18.4 °F 19.4 °F 86% 30.15 in 10.0 mi SW 3.5 mph - N/A   Scattered Clouds
5:14 AM 24.8 °F 20.5 °F 19.4 °F 80% 30.14 in 10.0 mi South 3.5 mph - N/A   Mostly Cloudy
5:34 AM 24.8 °F 17.9 °F 19.4 °F 80% 30.12 in 10.0 mi SE 5.8 mph - N/A   Overcast
5:54 AM 23.0 °F - 19.4 °F 86% 30.11 in 10.0 mi Calm Calm - N/A   Overcast
6:33 AM 24.8 °F 17.9 °F 21.2 °F 86% 30.11 in 10.0 mi South 5.8 mph - N/A   Clear
6:54 AM 24.8 °F 19.1 °F 19.4 °F 80% 30.11 in 10.0 mi South 4.6 mph - N/A   Clear
7:14 AM 24.8 °F 20.5 °F 19.4 °F 80% 30.12 in 10.0 mi SSE 3.5 mph - N/A   Clear
7:54 AM 24.8 °F 19.1 °F 19.4 °F 80% 30.11 in 10.0 mi SSE 4.6 mph - N/A   Scattered Clouds
8:14 AM 24.8 °F 17.9 °F 21.2 °F 86% 30.11 in 10.0 mi SSE 5.8 mph - N/A   Clear
8:34 AM 26.6 °F 17.5 °F 21.2 °F 80% 30.10 in 10.0 mi SSE 9.2 mph - N/A   Clear
8:54 AM 26.6 °F 15.7 °F 21.2 °F 80% 30.09 in 10.0 mi SSE 12.7 mph - N/A   Clear
9:14 AM 28.4 °F 19.7 °F 23.0 °F 80% 30.11 in 10.0 mi South 9.2 mph - N/A   Scattered Clouds
9:34 AM 28.4 °F 18.0 °F 23.0 °F 80% 30.11 in 10.0 mi South 12.7 mph 17.3 mph N/A   Mostly Cloudy
9:53 AM 28.4 °F 18.5 °F 23.0 °F 80% 30.11 in 10.0 mi South 11.5 mph 18.4 mph N/A   Overcast
10:14 AM 28.4 °F 18.5 °F 23.0 °F 80% 30.10 in 10.0 mi South 11.5 mph 17.3 mph N/A   Overcast
10:34 AM 28.4 °F 17.0 °F 23.0 °F 80% 30.10 in 10.0 mi SSE 15.0 mph 19.6 mph N/A   Overcast
10:54 AM 28.4 °F 18.5 °F 23.0 °F 80% 30.12 in 10.0 mi South 11.5 mph - N/A   Overcast
11:14 AM 28.4 °F 18.5 °F 23.0 °F 80% 30.11 in 10.0 mi South 11.5 mph - N/A   Overcast
11:33 AM 28.4 °F 17.5 °F 23.0 °F 80% 30.09 in 10.0 mi South 13.8 mph 18.4 mph N/A   Mostly Cloudy
11:54 AM 28.4 °F 20.4 °F 23.0 °F 80% 30.09 in 10.0 mi South 8.1 mph - N/A   Overcast
12:14 PM 30.2 °F 19.3 °F 24.8 °F 80% 30.06 in 10.0 mi South 15.0 mph 19.6 mph N/A   Mostly Cloudy
12:54 PM 32.0 °F 22.5 °F 24.8 °F 75% 30.06 in 10.0 mi South 12.7 mph 16.1 mph N/A   Clear
1:14 PM 33.8 °F 26.4 °F 24.8 °F 70% 30.06 in 10.0 mi South 9.2 mph - N/A   Clear
1:34 PM 33.8 °F 26.4 °F 24.8 °F 70% 30.06 in 10.0 mi South 9.2 mph - N/A   Clear
1:54 PM 35.6 °F 27.5 °F 24.8 °F 65% 30.05 in 10.0 mi SSW 11.5 mph 17.3 mph N/A   Clear
2:15 PM 35.6 °F 27.5 °F 24.8 °F 65% 30.05 in 10.0 mi South 11.5 mph 16.1 mph N/A   Clear
2:54 PM 35.6 °F 28.6 °F 24.8 °F 65% 30.06 in 10.0 mi SSW 9.2 mph - N/A   Scattered Clouds
3:14 PM 35.6 °F 29.2 °F 24.8 °F 65% 30.06 in 10.0 mi SSW 8.1 mph - N/A   Clear
3:34 PM 35.6 °F 29.9 °F 26.6 °F 70% 30.06 in 10.0 mi SSW 6.9 mph - N/A   Clear
3:54 PM 35.6 °F 30.7 °F 24.8 °F 65% 30.06 in 10.0 mi SSW 5.8 mph - N/A   Clear
4:14 PM 35.6 °F 32.8 °F 26.6 °F 70% 30.06 in 10.0 mi SSW 3.5 mph - N/A   Clear
4:34 PM 33.8 °F - 24.8 °F 70% 30.07 in 10.0 mi Calm Calm - N/A   Clear
4:54 PM 33.8 °F - 24.8 °F 70% 30.07 in 10.0 mi Calm Calm - N/A   Clear
5:34 PM 32.0 °F - 24.8 °F 75% 30.08 in 10.0 mi Calm Calm - N/A   Clear
5:54 PM 30.2 °F - 24.8 °F 80% 30.09 in 10.0 mi Calm Calm - N/A   Clear
6:13 PM 30.2 °F - 24.8 °F 80% 30.10 in 10.0 mi Calm Calm - N/A   Clear
6:34 PM 30.2 °F - 24.8 °F 80% 30.09 in 10.0 mi Calm Calm - N/A   Clear
6:54 PM 28.4 °F - 24.8 °F 86% 30.10 in 10.0 mi Calm Calm - N/A   Clear
7:14 PM 28.4 °F - 24.8 °F 86% 30.12 in 10.0 mi Calm Calm - N/A   Clear
7:34 PM 28.4 °F - 24.8 °F 86% 30.12 in 10.0 mi Calm Calm - N/A   Clear
8:14 PM 30.2 °F 26.7 °F 26.6 °F 86% 30.13 in 10.0 mi NW 3.5 mph - N/A   Clear
8:34 PM 33.8 °F 29.6 °F 26.6 °F 75% 30.13 in 10.0 mi NW 4.6 mph - N/A   Clear
8:54 PM 33.8 °F 28.6 °F 24.8 °F 70% 30.14 in 10.0 mi NW 5.8 mph - N/A   Clear
9:14 PM 33.8 °F 27.7 °F 24.8 °F 70% 30.14 in 10.0 mi NNW 6.9 mph - N/A   Clear
9:54 PM 35.6 °F 28.0 °F 24.8 °F 65% 30.15 in 10.0 mi NNW 10.4 mph - N/A   Clear
10:14 PM 35.6 °F 26.6 °F 24.8 °F 65% 30.16 in 10.0 mi NNW 13.8 mph - N/A   Clear
10:33 PM 35.6 °F 26.6 °F 24.8 °F 65% 30.17 in 10.0 mi NNW 13.8 mph - N/A   Clear
11:14 PM 33.8 °F 27.0 °F 26.6 °F 75% 30.18 in 10.0 mi North 8.1 mph - N/A   Clear
11:34 PM 33.8 °F 26.4 °F 26.6 °F 75% 30.19 in 10.0 mi NNW 9.2 mph - N/A   Clear
11:54 PM 33.8 °F 26.4 °F 26.6 °F 75% 30.20 in 10.0 mi NNW 9.2 mph - N/A   Clear